Terminal Aerodrome Forecast
Issued by NWS New Orleans/Baton Rouge, LA

Home | Current Version | Previous Version | Text Only | Print | Product List | Glossary On
Versions: 1 2 3 4 5 6 7 8 9 10 11 12 13 14 15 16 17 18 19 20 21 22 23 24 25 26 27 28 29 30 31 32 33 34 35
000
FTUS44 KLIX 251724
TAFNEW
TAF
KNEW 251724Z 2518/2618 22010KT P6SM VCTS SCT020CB BKN090
      TEMPO 2518/2521 VRB20G30KT 1SM TSRA OVC015CB
     FM260000 23011KT P6SM BKN250
     FM260700 24007KT P6SM BKN130
     FM260900 24006KT P6SM BKN020
     FM261500 23005KT P6SM SCT020=

USA.gov is the U.S. government's official web portal to all federal, state and local government web resources and services.